createdAt,value
2022-08-03T00:02:21.564Z,4.32
2022-08-03T00:04:50.026Z,4.97
2022-08-03T00:07:18.483Z,4.20
2022-08-03T00:09:46.861Z,5.40
2022-08-03T00:12:15.496Z,4.53
2022-08-03T00:14:44.123Z,4.60
2022-08-03T00:17:12.598Z,4.40
2022-08-03T00:19:42.340Z,4.57
2022-08-03T00:22:10.803Z,4.60
2022-08-03T00:24:39.216Z,4.57
2022-08-03T00:27:07.703Z,4.63
2022-08-03T00:29:59.384Z,5.05
2022-08-03T00:32:24.907Z,4.80
2022-08-03T00:34:57.590Z,4.40
2022-08-03T00:37:41.507Z,4.50
2022-08-03T00:40:13.109Z,4.57
2022-08-03T00:42:53.577Z,4.68
2022-08-03T00:45:24.178Z,4.72
2022-08-03T00:47:52.836Z,5.15
2022-08-03T00:50:24.850Z,4.68
2022-08-03T00:52:54.943Z,4.53
2022-08-03T00:55:24.108Z,4.82
2022-08-03T00:57:53.409Z,4.78
2022-08-03T01:00:24.366Z,4.53
2022-08-03T01:02:54.039Z,4.30
2022-08-03T01:05:24.208Z,4.47
2022-08-03T01:08:04.344Z,4.97
2022-08-03T01:10:41.828Z,4.65
2022-08-03T01:14:03.699Z,5.13
2022-08-03T01:16:16.595Z,6.32
2022-08-03T01:21:25.993Z,5.00
2022-08-03T01:24:07.953Z,4.65
2022-08-03T01:27:04.080Z,4.85
2022-08-03T01:30:12.426Z,4.65
2022-08-03T01:33:00.295Z,5.15
2022-08-03T01:35:38.681Z,5.20
2022-08-03T01:38:11.936Z,4.32
2022-08-03T01:40:42.473Z,5.00
2022-08-03T01:43:14.454Z,5.10
2022-08-03T01:46:05.383Z,5.18
2022-08-03T01:48:37.448Z,5.03
2022-08-03T01:51:07.219Z,4.60
2022-08-03T01:53:37.993Z,4.90
2022-08-03T01:56:07.815Z,4.95
2022-08-03T01:58:37.472Z,4.88
2022-08-03T02:01:07.411Z,5.03
2022-08-03T02:03:59.676Z,4.55
2022-08-03T02:06:59.884Z,4.85
2022-08-03T02:09:22.051Z,5.13
2022-08-03T02:11:52.305Z,4.72
2022-08-03T02:14:21.391Z,4.90
2022-08-03T02:16:51.740Z,4.82
2022-08-03T02:19:22.825Z,4.53
2022-08-03T02:21:56.893Z,4.78
2022-08-03T02:24:30.536Z,4.60
2022-08-03T02:27:01.361Z,4.78
2022-08-03T02:29:40.379Z,4.72
2022-08-03T02:32:13.584Z,4.60
2022-08-03T02:34:47.343Z,4.68
2022-08-03T02:37:19.208Z,5.25
2022-08-03T02:39:49.211Z,5.32
2022-08-03T02:42:22.591Z,4.70
2022-08-03T02:44:54.448Z,4.78
2022-08-03T02:47:23.625Z,4.88
2022-08-03T02:49:55.517Z,4.40
2022-08-03T02:52:27.940Z,4.65
2022-08-03T02:55:00.188Z,4.43
2022-08-03T02:57:30.954Z,4.28
2022-08-03T03:00:01.078Z,4.53
2022-08-03T03:02:31.060Z,4.20
2022-08-03T03:05:54.339Z,4.13
2022-08-03T03:07:53.035Z,4.35
2022-08-03T03:10:23.415Z,4.05
2022-08-03T03:12:53.511Z,4.40
2022-08-03T03:15:22.350Z,4.63
2022-08-03T03:17:52.291Z,4.10
2022-08-03T03:20:29.113Z,4.20
2022-08-03T03:23:01.171Z,4.22
2022-08-03T03:25:31.697Z,4.35
2022-08-03T03:28:01.130Z,5.13
2022-08-03T03:30:31.456Z,4.60
2022-08-03T03:33:00.672Z,4.40
2022-08-03T03:35:30.732Z,4.68
2022-08-03T03:38:07.851Z,4.38
2022-08-03T03:40:36.426Z,4.75
2022-08-03T03:43:08.308Z,4.60
2022-08-03T03:45:37.082Z,4.50
2022-08-03T03:48:07.668Z,4.25
2022-08-03T03:50:40.884Z,4.80
2022-08-03T03:53:11.180Z,4.83
2022-08-03T03:56:01.636Z,4.93
2022-08-03T03:58:28.597Z,4.63
2022-08-03T04:00:57.220Z,4.70
2022-08-03T04:03:25.736Z,5.10
2022-08-03T04:06:13.019Z,4.90
2022-08-03T04:09:14.279Z,4.70
2022-08-03T04:11:46.909Z,4.85
2022-08-03T04:14:20.336Z,5.03
2022-08-03T04:16:52.867Z,4.80
2022-08-03T04:19:27.971Z,4.93
2022-08-03T04:22:01.995Z,4.82
2022-08-03T04:24:35.680Z,5.30
2022-08-03T04:27:08.011Z,5.53
2022-08-03T04:29:48.380Z,5.22
2022-08-03T04:32:19.057Z,5.85
2022-08-03T04:34:48.048Z,6.63
2022-08-03T04:37:26.376Z,7.07
2022-08-03T04:39:58.138Z,7.72
2022-08-03T04:42:27.394Z,7.50
2022-08-03T04:45:01.136Z,7.78
2022-08-03T04:47:33.185Z,6.82
2022-08-03T04:50:02.631Z,6.72
2022-08-03T04:52:33.050Z,6.30
2022-08-03T04:55:01.573Z,5.80
2022-08-03T04:57:30.034Z,6.10
2022-08-03T05:00:03.056Z,5.32
2022-08-03T05:02:32.748Z,5.80
2022-08-03T05:05:01.326Z,5.82
2022-08-03T05:07:35.473Z,5.88
2022-08-03T05:10:15.812Z,5.57
2022-08-03T05:12:46.640Z,6.00
2022-08-03T05:15:15.992Z,5.20
2022-08-03T05:17:44.655Z,5.28
2022-08-03T05:20:13.689Z,5.15
2022-08-03T05:22:47.325Z,4.93
2022-08-03T05:25:20.536Z,5.28
2022-08-03T05:30:27.246Z,4.97
2022-08-03T05:33:03.090Z,5.43
2022-08-03T05:35:56.839Z,5.07
2022-08-03T05:38:23.929Z,5.10
2022-08-03T05:41:23.657Z,4.57
2022-08-03T05:43:47.561Z,4.60
2022-08-03T05:46:16.203Z,4.35
2022-08-03T05:48:44.681Z,4.28
2022-08-03T05:51:13.631Z,4.35
2022-08-03T05:53:42.581Z,4.80
2022-08-03T05:56:15.973Z,4.15
2022-08-03T05:58:48.449Z,4.63
2022-08-03T06:01:18.025Z,4.20
2022-08-03T06:03:46.956Z,3.88
2022-08-03T06:06:16.072Z,4.07
2022-08-03T06:08:45.336Z,4.00
2022-08-03T06:11:16.427Z,4.47
2022-08-03T06:13:45.574Z,4.00
2022-08-03T06:16:13.972Z,4.15
2022-08-03T06:18:42.392Z,5.05
2022-08-03T06:21:15.361Z,4.80
2022-08-03T06:23:53.905Z,3.97
2022-08-03T06:26:29.134Z,4.30
2022-08-03T06:28:57.631Z,4.22
2022-08-03T06:31:32.435Z,3.97
2022-08-03T06:34:33.672Z,4.85
2022-08-03T06:36:58.641Z,4.45
2022-08-03T06:39:30.046Z,5.03
2022-08-03T06:41:59.911Z,3.80
2022-08-03T06:44:28.370Z,4.30
2022-08-03T06:46:56.908Z,4.03
2022-08-03T06:49:25.434Z,4.25
2022-08-03T06:52:03.798Z,3.42
2022-08-03T06:54:36.817Z,4.65
2022-08-03T06:57:08.308Z,4.05
2022-08-03T07:00:07.597Z,5.03
2022-08-03T07:02:28.312Z,3.80
2022-08-03T07:04:58.283Z,4.10
2022-08-03T07:07:26.983Z,4.30
2022-08-03T07:09:57.873Z,3.72
2022-08-03T07:12:29.538Z,2.80
2022-08-03T07:15:02.238Z,2.60
2022-08-03T07:17:32.255Z,2.67
2022-08-03T07:20:01.548Z,3.55
2022-08-03T07:22:30.005Z,2.90
2022-08-03T07:24:59.174Z,2.85
2022-08-03T07:27:30.362Z,3.30
2022-08-03T07:30:00.268Z,3.67
2022-08-03T07:32:31.466Z,3.20
2022-08-03T07:35:01.461Z,3.28
2022-08-03T07:37:31.118Z,4.63
2022-08-03T07:39:59.878Z,4.20
2022-08-03T07:42:30.260Z,3.08
2022-08-03T07:44:59.447Z,2.70
2022-08-03T07:47:34.866Z,3.25
2022-08-03T07:50:05.531Z,3.15
2022-08-03T07:52:53.478Z,3.22
2022-08-03T07:55:28.068Z,3.20
2022-08-03T07:58:06.238Z,2.80
2022-08-03T08:00:35.006Z,2.92
2022-08-03T08:03:03.857Z,2.72
2022-08-03T08:05:32.785Z,2.72
2022-08-03T08:08:01.915Z,2.60
2022-08-03T08:10:31.177Z,2.53
2022-08-03T08:13:00.335Z,2.80
2022-08-03T08:15:30.316Z,2.40
2022-08-03T08:18:01.446Z,2.40
2022-08-03T08:20:33.142Z,2.47
2022-08-03T08:23:24.196Z,2.30
2022-08-03T08:25:55.054Z,2.78
2022-08-03T08:28:30.246Z,2.42
2022-08-03T08:31:02.169Z,2.67
2022-08-03T08:34:02.654Z,2.50
2022-08-03T08:36:19.639Z,2.65
2022-08-03T08:38:48.732Z,2.38
2022-08-03T08:41:18.105Z,2.60
2022-08-03T08:43:46.516Z,2.33
2022-08-03T08:46:23.924Z,2.42
2022-08-03T08:48:54.170Z,2.20
2022-08-03T08:51:23.628Z,2.50
2022-08-03T08:54:12.662Z,2.40
2022-08-03T08:56:41.507Z,2.50
2022-08-03T08:59:10.043Z,2.50
2022-08-03T09:01:40.201Z,2.70
2022-08-03T09:04:09.528Z,2.47
2022-08-03T09:06:38.071Z,2.50
2022-08-03T09:09:07.473Z,2.42
2022-08-03T09:11:53.198Z,2.60
2022-08-03T09:14:39.420Z,2.58
2022-08-03T09:17:17.354Z,2.30
2022-08-03T09:20:06.007Z,2.55
2022-08-03T09:22:34.542Z,2.20
2022-08-03T09:27:53.737Z,2.40
2022-08-03T09:30:33.620Z,2.53
2022-08-03T09:33:05.847Z,2.65
2022-08-03T09:38:26.360Z,2.58
2022-08-03T09:40:59.895Z,5.88
2022-08-03T09:43:29.299Z,2.45
2022-08-03T09:46:04.378Z,2.50
2022-08-03T09:48:35.502Z,2.75
2022-08-03T09:51:14.079Z,2.50
2022-08-03T09:54:01.762Z,2.45
2022-08-03T09:56:41.149Z,2.70
2022-08-03T09:59:10.098Z,2.85
2022-08-03T10:01:41.557Z,2.38
2022-08-03T10:04:17.170Z,2.30
2022-08-03T10:06:46.484Z,2.50
2022-08-03T10:09:16.877Z,2.50
2022-08-03T10:11:46.924Z,2.30
2022-08-03T10:14:19.517Z,2.60
2022-08-03T10:16:49.302Z,2.60
2022-08-03T10:19:19.464Z,2.63
2022-08-03T10:21:51.226Z,3.70
2022-08-03T10:24:27.538Z,2.58
2022-08-03T10:27:00.550Z,2.70
2022-08-03T10:29:30.322Z,2.30
2022-08-03T10:32:01.663Z,2.60
2022-08-03T10:34:44.258Z,2.80
2022-08-03T10:37:17.065Z,2.20
2022-08-03T10:39:54.378Z,2.53
2022-08-03T10:42:26.956Z,2.10
2022-08-03T10:45:05.604Z,2.50
2022-08-03T10:47:35.507Z,2.30
2022-08-03T10:50:06.418Z,2.20
2022-08-03T10:52:38.142Z,2.40
2022-08-03T10:55:47.831Z,2.30
2022-08-03T10:58:35.465Z,2.53
2022-08-03T11:01:05.056Z,2.47
2022-08-03T11:03:33.894Z,2.70
2022-08-03T11:06:19.112Z,3.25
2022-08-03T11:08:48.496Z,2.70
2022-08-03T11:11:28.539Z,2.60
2022-08-03T11:14:03.285Z,2.40
2022-08-03T11:16:35.104Z,2.35
2022-08-03T11:19:05.273Z,2.10
2022-08-03T11:22:00.454Z,2.30
2022-08-03T11:25:53.612Z,2.30
2022-08-03T11:28:29.352Z,2.20
2022-08-03T11:31:53.437Z,2.22
2022-08-03T11:34:21.984Z,2.40
2022-08-03T11:37:26.350Z,2.95
2022-08-03T11:39:57.159Z,2.97
2022-08-03T11:42:48.353Z,2.30
2022-08-03T11:45:19.792Z,2.72
2022-08-03T11:47:51.469Z,2.40
2022-08-03T11:50:21.511Z,2.40
2022-08-03T11:52:52.313Z,2.80
2022-08-03T11:55:22.268Z,2.63
2022-08-03T11:59:16.666Z,2.65
2022-08-03T12:00:40.613Z,2.35
2022-08-03T12:03:12.004Z,2.85
2022-08-03T12:05:51.243Z,2.95
2022-08-03T12:08:32.595Z,2.72
2022-08-03T12:11:03.070Z,2.20
2022-08-03T12:14:08.861Z,2.40
2022-08-03T12:16:28.857Z,4.32
2022-08-03T12:18:58.669Z,2.40
2022-08-03T12:21:27.754Z,2.30
2022-08-03T12:24:01.353Z,2.60
2022-08-03T12:26:30.767Z,2.70
2022-08-03T12:28:59.183Z,2.90
2022-08-03T12:31:27.646Z,2.60
2022-08-03T12:33:59.311Z,3.28
2022-08-03T12:36:28.986Z,2.95
2022-08-03T12:39:01.144Z,3.35
2022-08-03T12:41:31.987Z,2.38
2022-08-03T12:44:01.455Z,2.40
2022-08-03T12:46:35.188Z,2.30
2022-08-03T12:49:09.043Z,2.60
2022-08-03T12:51:39.069Z,2.40
2022-08-03T12:54:08.969Z,2.28
2022-08-03T12:57:00.885Z,2.22
2022-08-03T12:59:35.457Z,2.20
2022-08-03T13:02:17.688Z,4.43
2022-08-03T13:04:47.485Z,2.50
2022-08-03T13:07:18.400Z,2.58
2022-08-03T13:09:51.380Z,2.63
2022-08-03T13:12:22.308Z,2.80
2022-08-03T13:14:53.003Z,2.65
2022-08-03T13:17:21.807Z,2.20
2022-08-03T13:19:51.606Z,2.33
2022-08-03T13:22:22.157Z,2.28
2022-08-03T13:24:53.529Z,2.47
2022-08-03T13:28:04.706Z,2.08
2022-08-03T13:30:11.504Z,2.50
2022-08-03T13:32:40.127Z,2.75
2022-08-03T13:35:10.021Z,2.63
2022-08-03T13:37:39.305Z,2.40
2022-08-03T13:40:11.571Z,3.13
2022-08-03T13:42:40.384Z,2.67
2022-08-03T13:45:10.464Z,4.55
2022-08-03T13:47:38.883Z,2.90
2022-08-03T13:50:07.835Z,2.20
2022-08-03T13:52:37.207Z,2.30
2022-08-03T13:55:07.529Z,2.40
2022-08-03T13:58:11.869Z,2.80
2022-08-03T14:00:28.554Z,2.97
2022-08-03T14:03:07.984Z,2.43
2022-08-03T14:05:41.241Z,2.47
2022-08-03T14:08:10.112Z,2.60
2022-08-03T14:10:40.333Z,2.38
2022-08-03T14:13:11.829Z,5.25
2022-08-03T14:15:40.264Z,2.60
2022-08-03T14:18:12.878Z,2.90
2022-08-03T14:20:49.125Z,2.30
2022-08-03T14:23:20.144Z,2.60
2022-08-03T14:25:52.100Z,2.50
2022-08-03T14:28:25.806Z,2.45
2022-08-03T14:30:55.863Z,2.10
2022-08-03T14:33:24.475Z,2.10
2022-08-03T14:35:53.615Z,2.30
2022-08-03T14:38:22.864Z,2.40
2022-08-03T14:40:53.092Z,2.20
2022-08-03T14:43:21.584Z,2.38
2022-08-03T14:45:52.482Z,2.30
2022-08-03T14:50:33.382Z,2.10
2022-08-03T14:51:10.169Z,2.45
2022-08-03T14:53:38.678Z,3.13
2022-08-03T14:56:10.486Z,2.53
2022-08-03T14:58:39.536Z,2.30
2022-08-03T15:02:02.107Z,2.65
2022-08-03T15:03:58.124Z,2.47
2022-08-03T15:06:26.635Z,3.20
2022-08-03T15:09:21.311Z,2.20
2022-08-03T15:11:44.154Z,3.10
2022-08-03T15:14:13.485Z,3.20
2022-08-03T15:16:44.523Z,2.40
2022-08-03T15:20:01.078Z,2.25
2022-08-03T15:22:01.935Z,2.80
2022-08-03T15:24:30.433Z,2.50
2022-08-03T15:26:58.980Z,2.60
2022-08-03T15:30:09.039Z,2.50
2022-08-03T15:32:17.334Z,3.78
2022-08-03T15:34:50.256Z,3.10
2022-08-03T15:37:20.813Z,3.95
2022-08-03T15:39:58.830Z,3.50
2022-08-03T15:42:30.706Z,2.75
2022-08-03T15:44:59.408Z,3.10
2022-08-03T15:47:29.241Z,3.05
2022-08-03T15:49:57.820Z,5.32
2022-08-03T15:52:26.385Z,6.20
2022-08-03T15:54:54.949Z,4.90
2022-08-03T15:57:24.631Z,3.30
2022-08-03T15:59:53.133Z,3.50
2022-08-03T16:02:21.743Z,3.72
2022-08-03T16:04:52.219Z,3.20
2022-08-03T16:07:41.152Z,4.78
2022-08-03T16:10:30.612Z,2.63
2022-08-03T16:13:00.214Z,2.25
2022-08-03T16:15:28.856Z,5.07
2022-08-03T16:17:57.332Z,3.17
2022-08-03T16:20:29.279Z,3.10
2022-08-03T16:23:10.937Z,4.18
2022-08-03T16:25:40.901Z,2.88
2022-08-03T16:28:14.261Z,3.78
2022-08-03T16:30:45.472Z,3.28
2022-08-03T16:33:16.757Z,3.10
2022-08-03T16:35:49.572Z,2.67
2022-08-03T16:38:19.521Z,2.92
2022-08-03T16:40:52.075Z,4.85
2022-08-03T16:43:22.077Z,4.55
2022-08-03T16:45:50.802Z,3.53
2022-08-03T16:48:20.197Z,6.68
2022-08-03T16:50:50.093Z,3.00
2022-08-03T16:53:18.657Z,3.47
2022-08-03T16:56:02.984Z,3.20
2022-08-03T16:58:42.215Z,3.80
2022-08-03T17:01:22.626Z,5.95
2022-08-03T17:04:01.646Z,4.22
2022-08-03T17:06:36.539Z,3.78
2022-08-03T17:09:08.473Z,4.05
2022-08-03T17:11:46.389Z,4.63
2022-08-03T17:14:17.476Z,3.15
2022-08-03T17:16:53.829Z,3.35
2022-08-03T17:19:25.372Z,3.28
2022-08-03T17:22:01.357Z,3.25
2022-08-03T17:24:32.953Z,3.40
2022-08-03T17:27:04.140Z,3.58
2022-08-03T17:29:44.971Z,3.58
2022-08-03T17:32:18.387Z,5.50
2022-08-03T17:34:50.488Z,4.50
2022-08-03T17:37:50.763Z,3.38
2022-08-03T17:40:17.280Z,4.03
2022-08-03T17:42:50.698Z,3.80
2022-08-03T17:47:57.107Z,3.10
2022-08-03T17:50:37.461Z,3.40
2022-08-03T17:53:24.268Z,3.95
2022-08-03T17:56:38.593Z,4.03
2022-08-03T17:59:08.693Z,3.80
2022-08-03T18:05:16.088Z,3.75
2022-08-03T18:07:50.831Z,3.30
2022-08-03T18:13:10.785Z,3.40
2022-08-03T18:15:47.230Z,4.55
2022-08-03T18:18:32.388Z,4.03
2022-08-03T18:21:04.766Z,4.00
2022-08-03T18:23:37.334Z,4.57
2022-08-03T18:26:10.796Z,4.65
2022-08-03T18:28:41.624Z,6.20
2022-08-03T18:31:59.834Z,5.72
2022-08-03T18:34:32.666Z,5.30
2022-08-03T18:36:55.829Z,5.22
2022-08-03T18:39:24.570Z,4.97
2022-08-03T18:41:55.160Z,4.90
2022-08-03T18:44:37.715Z,5.28
2022-08-03T18:47:50.407Z,5.35
2022-08-03T18:50:35.544Z,5.53
2022-08-03T18:53:16.337Z,5.93
2022-08-03T18:56:01.907Z,7.50
2022-08-03T18:58:38.909Z,7.35
2022-08-03T19:01:56.472Z,6.68
2022-08-03T19:04:10.294Z,7.40
2022-08-03T19:06:43.088Z,31.23
2022-08-03T19:09:20.177Z,20.23
2022-08-03T19:12:12.740Z,12.52
2022-08-03T19:14:51.920Z,10.68
2022-08-03T19:17:23.626Z,9.60
2022-08-03T19:19:59.417Z,9.85
2022-08-03T19:22:30.971Z,11.23
2022-08-03T19:25:02.366Z,12.57
2022-08-03T19:27:32.118Z,13.18
2022-08-03T19:32:53.755Z,10.50
2022-08-03T19:35:52.046Z,9.43
2022-08-03T19:38:11.891Z,9.98
2022-08-03T19:40:43.686Z,10.88
2022-08-03T19:43:23.349Z,11.60
2022-08-03T19:46:05.153Z,12.10
2022-08-03T19:48:37.084Z,13.30
2022-08-03T19:51:12.113Z,16.60
2022-08-03T19:53:44.919Z,15.20
2022-08-03T19:56:15.455Z,14.60
2022-08-03T19:58:45.857Z,15.55
2022-08-03T20:01:23.737Z,15.27
2022-08-03T20:03:57.344Z,15.43
2022-08-03T20:06:25.895Z,15.38
2022-08-03T20:08:54.769Z,14.93
2022-08-03T20:11:28.870Z,16.92
2022-08-03T20:13:59.273Z,15.77
2022-08-03T20:16:29.203Z,15.85
2022-08-03T20:18:57.985Z,16.65
2022-08-03T20:21:32.495Z,18.52
2022-08-03T20:24:24.461Z,16.52
2022-08-03T20:26:54.767Z,17.88
2022-08-03T20:30:05.132Z,16.70
2022-08-03T20:32:24.664Z,17.13
2022-08-03T20:34:53.649Z,19.08
2022-08-03T20:37:22.146Z,17.45
2022-08-03T20:39:50.763Z,17.65
2022-08-03T20:42:21.596Z,16.75
2022-08-03T20:45:04.567Z,17.10
2022-08-03T20:50:22.101Z,19.08
2022-08-03T20:52:51.177Z,17.67
2022-08-03T20:55:47.101Z,16.20
2022-08-03T20:58:08.730Z,15.27
2022-08-03T21:00:37.529Z,15.70
2022-08-03T21:03:08.979Z,15.68
2022-08-03T21:05:51.281Z,19.98
2022-08-03T21:08:23.758Z,21.15
2022-08-03T21:10:54.317Z,17.77
2022-08-03T21:13:08.689Z,10.50
2022-08-03T21:13:28.938Z,16.02
2022-08-03T21:16:11.593Z,17.30
2022-08-03T21:18:50.061Z,17.05
2022-08-03T21:21:19.955Z,15.07
2022-08-03T21:23:52.709Z,15.27
2022-08-03T21:26:22.961Z,16.02
2022-08-03T21:28:53.810Z,17.95
2022-08-03T21:31:25.604Z,21.90
2022-08-03T21:33:57.534Z,20.52
2022-08-03T21:36:28.679Z,32.70
2022-08-03T21:38:58.276Z,17.33
2022-08-03T21:41:28.301Z,16.70
2022-08-03T21:43:56.762Z,15.35
2022-08-03T21:46:27.012Z,17.35
2022-08-03T21:50:04.884Z,16.80
2022-08-03T21:51:50.925Z,15.33
2022-08-03T21:54:21.854Z,15.10
2022-08-03T21:56:52.398Z,14.90
2022-08-03T21:59:22.769Z,15.32
2022-08-03T22:01:55.177Z,14.73
2022-08-03T22:04:50.949Z,13.00
2022-08-03T22:07:18.281Z,12.32
2022-08-03T22:09:51.157Z,13.05
2022-08-03T22:12:24.407Z,12.57
2022-08-03T22:15:00.763Z,12.65
2022-08-03T22:17:54.849Z,12.38
2022-08-03T22:20:22.765Z,11.85
2022-08-03T22:22:56.938Z,11.80
2022-08-03T22:25:29.909Z,11.85
2022-08-03T22:28:00.626Z,11.63
2022-08-03T22:30:29.307Z,10.73
2022-08-03T22:32:59.176Z,10.18
2022-08-03T22:35:29.483Z,9.43
2022-08-03T22:37:59.645Z,9.95
2022-08-03T22:40:28.759Z,9.00
2022-08-03T22:42:58.133Z,9.27
2022-08-03T22:46:07.218Z,8.20
2022-08-03T22:48:17.395Z,9.10
2022-08-03T22:50:48.072Z,9.70
2022-08-03T22:53:18.410Z,9.68
2022-08-03T22:55:47.159Z,9.80
2022-08-03T22:58:16.625Z,9.82
2022-08-03T23:00:53.834Z,11.30
2022-08-03T23:03:25.564Z,9.75
2022-08-03T23:06:19.306Z,10.52
2022-08-03T23:08:48.729Z,9.25
2022-08-03T23:11:19.565Z,8.80
2022-08-03T23:13:53.259Z,9.23
2022-08-03T23:16:29.392Z,8.00
2022-08-03T23:19:16.364Z,8.68
2022-08-03T23:21:59.844Z,8.07
2022-08-03T23:24:30.485Z,8.38
2022-08-03T23:26:59.421Z,7.78
2022-08-03T23:29:31.424Z,7.70
2022-08-03T23:32:02.253Z,7.97
2022-08-03T23:34:51.114Z,7.60
2022-08-03T23:37:21.418Z,8.40
2022-08-03T23:39:50.623Z,8.30
2022-08-03T23:42:21.369Z,8.05
2022-08-03T23:44:55.232Z,7.57
2022-08-03T23:47:24.133Z,7.63
2022-08-03T23:50:12.763Z,7.38
2022-08-03T23:52:53.847Z,7.93
2022-08-03T23:55:37.555Z,7.38
2022-08-03T23:58:14.484Z,7.60
